sensor_id;sensor_type;location;lat;lon;timestamp;P1;durP1;ratioP1;P2;durP2;ratioP2
38208;SDS011;24016;52.102;11.584;2023-07-31T00:01:04;4.95;;;1.63;;
38208;SDS011;24016;52.102;11.584;2023-07-31T00:03:29;4.93;;;1.55;;
38208;SDS011;24016;52.102;11.584;2023-07-31T00:05:55;4.70;;;1.75;;
38208;SDS011;24016;52.102;11.584;2023-07-31T00:08:20;5.93;;;1.58;;
38208;SDS011;24016;52.102;11.584;2023-07-31T00:10:46;6.60;;;2.00;;
38208;SDS011;24016;52.102;11.584;2023-07-31T00:13:12;4.78;;;1.88;;
38208;SDS011;24016;52.102;11.584;2023-07-31T00:15:37;5.57;;;1.73;;
38208;SDS011;24016;52.102;11.584;2023-07-31T00:18:03;7.72;;;2.08;;
38208;SDS011;24016;52.102;11.584;2023-07-31T00:20:28;4.63;;;2.00;;
38208;SDS011;24016;52.102;11.584;2023-07-31T00:22:54;3.67;;;1.80;;
38208;SDS011;24016;52.102;11.584;2023-07-31T00:25:19;5.55;;;1.80;;
38208;SDS011;24016;52.102;11.584;2023-07-31T00:27:45;5.68;;;1.83;;
38208;SDS011;24016;52.102;11.584;2023-07-31T00:30:11;5.85;;;2.03;;
38208;SDS011;24016;52.102;11.584;2023-07-31T00:32:37;5.00;;;1.85;;
38208;SDS011;24016;52.102;11.584;2023-07-31T00:35:02;4.53;;;1.80;;
38208;SDS011;24016;52.102;11.584;2023-07-31T00:37:28;6.00;;;1.98;;
38208;SDS011;24016;52.102;11.584;2023-07-31T00:39:54;4.15;;;1.90;;
38208;SDS011;24016;52.102;11.584;2023-07-31T00:42:19;5.68;;;1.90;;
38208;SDS011;24016;52.102;11.584;2023-07-31T00:44:45;4.43;;;2.00;;
38208;SDS011;24016;52.102;11.584;2023-07-31T00:47:10;5.78;;;2.03;;
38208;SDS011;24016;52.102;11.584;2023-07-31T00:49:36;7.80;;;1.90;;
38208;SDS011;24016;52.102;11.584;2023-07-31T00:52:02;5.07;;;2.17;;
38208;SDS011;24016;52.102;11.584;2023-07-31T00:54:28;6.00;;;2.25;;
38208;SDS011;24016;52.102;11.584;2023-07-31T00:56:54;5.28;;;1.80;;
38208;SDS011;24016;52.102;11.584;2023-07-31T00:59:19;4.65;;;1.90;;
38208;SDS011;24016;52.102;11.584;2023-07-31T01:01:45;4.85;;;1.92;;
38208;SDS011;24016;52.102;11.584;2023-07-31T01:04:11;6.40;;;2.40;;
38208;SDS011;24016;52.102;11.584;2023-07-31T01:06:59;5.68;;;2.08;;
38208;SDS011;24016;52.102;11.584;2023-07-31T01:09:45;4.00;;;1.73;;
38208;SDS011;24016;52.102;11.584;2023-07-31T01:12:17;7.60;;;1.80;;
38208;SDS011;24016;52.102;11.584;2023-07-31T01:14:52;6.28;;;2.10;;
38208;SDS011;24016;52.102;11.584;2023-07-31T01:17:26;5.65;;;2.08;;
38208;SDS011;24016;52.102;11.584;2023-07-31T01:19:52;4.40;;;1.83;;
38208;SDS011;24016;52.102;11.584;2023-07-31T01:28:31;7.05;;;2.47;;
38208;SDS011;24016;52.102;11.584;2023-07-31T01:31:20;5.00;;;1.98;;
38208;SDS011;24016;52.102;11.584;2023-07-31T01:33:51;6.65;;;2.22;;
38208;SDS011;24016;52.102;11.584;2023-07-31T01:36:20;4.55;;;2.05;;
38208;SDS011;24016;52.102;11.584;2023-07-31T01:38:46;6.85;;;2.58;;
38208;SDS011;24016;52.102;11.584;2023-07-31T01:41:12;4.75;;;2.00;;
38208;SDS011;24016;52.102;11.584;2023-07-31T01:43:38;5.93;;;1.90;;
38208;SDS011;24016;52.102;11.584;2023-07-31T01:46:04;8.75;;;2.15;;
38208;SDS011;24016;52.102;11.584;2023-07-31T01:48:29;6.80;;;2.53;;
38208;SDS011;24016;52.102;11.584;2023-07-31T01:51:00;5.67;;;2.43;;
38208;SDS011;24016;52.102;11.584;2023-07-31T01:53:26;4.15;;;2.05;;
38208;SDS011;24016;52.102;11.584;2023-07-31T01:55:52;4.95;;;2.40;;
38208;SDS011;24016;52.102;11.584;2023-07-31T01:58:17;7.05;;;2.03;;
38208;SDS011;24016;52.102;11.584;2023-07-31T02:00:43;5.88;;;2.30;;
38208;SDS011;24016;52.102;11.584;2023-07-31T02:03:08;7.57;;;2.50;;
38208;SDS011;24016;52.102;11.584;2023-07-31T02:05:34;4.55;;;2.15;;
38208;SDS011;24016;52.102;11.584;2023-07-31T02:07:59;8.73;;;2.50;;
38208;SDS011;24016;52.102;11.584;2023-07-31T02:10:25;6.97;;;2.58;;
38208;SDS011;24016;52.102;11.584;2023-07-31T02:12:51;7.93;;;2.90;;
38208;SDS011;24016;52.102;11.584;2023-07-31T02:15:16;4.30;;;2.30;;
38208;SDS011;24016;52.102;11.584;2023-07-31T02:17:42;5.25;;;2.20;;
38208;SDS011;24016;52.102;11.584;2023-07-31T02:20:07;8.05;;;2.97;;
38208;SDS011;24016;52.102;11.584;2023-07-31T02:22:33;6.43;;;2.40;;
38208;SDS011;24016;52.102;11.584;2023-07-31T02:24:59;8.27;;;2.45;;
38208;SDS011;24016;52.102;11.584;2023-07-31T02:27:24;6.20;;;2.22;;
38208;SDS011;24016;52.102;11.584;2023-07-31T02:29:52;5.10;;;2.35;;
38208;SDS011;24016;52.102;11.584;2023-07-31T02:32:18;4.80;;;2.45;;
38208;SDS011;24016;52.102;11.584;2023-07-31T02:34:43;6.60;;;2.53;;
38208;SDS011;24016;52.102;11.584;2023-07-31T02:37:09;5.15;;;2.30;;
38208;SDS011;24016;52.102;11.584;2023-07-31T02:39:34;7.38;;;2.35;;
38208;SDS011;24016;52.102;11.584;2023-07-31T02:42:00;3.95;;;2.60;;
38208;SDS011;24016;52.102;11.584;2023-07-31T02:44:25;5.60;;;2.60;;
38208;SDS011;24016;52.102;11.584;2023-07-31T02:46:51;5.32;;;2.50;;
38208;SDS011;24016;52.102;11.584;2023-07-31T02:49:16;6.07;;;2.50;;
38208;SDS011;24016;52.102;11.584;2023-07-31T02:51:42;8.23;;;2.42;;
38208;SDS011;24016;52.102;11.584;2023-07-31T02:54:08;4.65;;;2.30;;
38208;SDS011;24016;52.102;11.584;2023-07-31T02:56:33;9.43;;;2.50;;
38208;SDS011;24016;52.102;11.584;2023-07-31T02:58:59;5.35;;;2.55;;
38208;SDS011;24016;52.102;11.584;2023-07-31T03:01:24;6.07;;;2.38;;
38208;SDS011;24016;52.102;11.584;2023-07-31T03:03:50;4.78;;;2.00;;
38208;SDS011;24016;52.102;11.584;2023-07-31T03:06:16;4.05;;;1.92;;
38208;SDS011;24016;52.102;11.584;2023-07-31T03:08:41;4.07;;;1.70;;
38208;SDS011;24016;52.102;11.584;2023-07-31T03:11:07;3.78;;;1.58;;
38208;SDS011;24016;52.102;11.584;2023-07-31T03:13:32;2.20;;;1.42;;
38208;SDS011;24016;52.102;11.584;2023-07-31T03:15:58;1.90;;;1.27;;
38208;SDS011;24016;52.102;11.584;2023-07-31T03:18:23;2.38;;;1.60;;
38208;SDS011;24016;52.102;11.584;2023-07-31T03:20:49;2.88;;;1.20;;
38208;SDS011;24016;52.102;11.584;2023-07-31T03:23:14;5.45;;;1.50;;
38208;SDS011;24016;52.102;11.584;2023-07-31T03:25:41;1.92;;;1.30;;
38208;SDS011;24016;52.102;11.584;2023-07-31T03:28:20;1.95;;;1.10;;
38208;SDS011;24016;52.102;11.584;2023-07-31T03:30:45;1.27;;;1.10;;
38208;SDS011;24016;52.102;11.584;2023-07-31T03:33:11;1.65;;;1.17;;
38208;SDS011;24016;52.102;11.584;2023-07-31T03:35:36;2.20;;;1.40;;
38208;SDS011;24016;52.102;11.584;2023-07-31T03:38:02;2.67;;;1.38;;
38208;SDS011;24016;52.102;11.584;2023-07-31T03:40:27;1.60;;;1.20;;
38208;SDS011;24016;52.102;11.584;2023-07-31T03:42:53;2.00;;;1.10;;
38208;SDS011;24016;52.102;11.584;2023-07-31T03:45:18;1.63;;;0.93;;
38208;SDS011;24016;52.102;11.584;2023-07-31T03:47:44;2.22;;;1.00;;
38208;SDS011;24016;52.102;11.584;2023-07-31T03:50:10;1.45;;;0.88;;
38208;SDS011;24016;52.102;11.584;2023-07-31T03:52:35;3.53;;;0.98;;
38208;SDS011;24016;52.102;11.584;2023-07-31T03:55:01;2.75;;;0.88;;
38208;SDS011;24016;52.102;11.584;2023-07-31T03:57:26;1.83;;;0.90;;
38208;SDS011;24016;52.102;11.584;2023-07-31T03:59:52;3.60;;;1.17;;
38208;SDS011;24016;52.102;11.584;2023-07-31T04:02:17;2.10;;;1.20;;
38208;SDS011;24016;52.102;11.584;2023-07-31T04:04:43;2.95;;;1.27;;
38208;SDS011;24016;52.102;11.584;2023-07-31T04:07:09;2.20;;;1.30;;
38208;SDS011;24016;52.102;11.584;2023-07-31T04:09:34;3.20;;;1.35;;
38208;SDS011;24016;52.102;11.584;2023-07-31T04:12:00;1.95;;;1.25;;
38208;SDS011;24016;52.102;11.584;2023-07-31T04:14:25;4.05;;;1.83;;
38208;SDS011;24016;52.102;11.584;2023-07-31T04:16:51;2.60;;;1.35;;
38208;SDS011;24016;52.102;11.584;2023-07-31T04:19:17;3.00;;;1.40;;
38208;SDS011;24016;52.102;11.584;2023-07-31T04:21:42;3.53;;;1.40;;
38208;SDS011;24016;52.102;11.584;2023-07-31T04:24:08;12.15;;;1.75;;
38208;SDS011;24016;52.102;11.584;2023-07-31T04:26:34;3.75;;;1.80;;
38208;SDS011;24016;52.102;11.584;2023-07-31T04:28:59;4.88;;;1.60;;
38208;SDS011;24016;52.102;11.584;2023-07-31T04:31:25;3.22;;;1.80;;
38208;SDS011;24016;52.102;11.584;2023-07-31T04:33:50;7.35;;;2.10;;
38208;SDS011;24016;52.102;11.584;2023-07-31T04:36:16;3.85;;;2.30;;
38208;SDS011;24016;52.102;11.584;2023-07-31T04:38:41;6.10;;;2.00;;
38208;SDS011;24016;52.102;11.584;2023-07-31T04:41:07;6.15;;;2.25;;
38208;SDS011;24016;52.102;11.584;2023-07-31T04:43:32;5.03;;;2.00;;
38208;SDS011;24016;52.102;11.584;2023-07-31T04:45:58;4.95;;;2.45;;
38208;SDS011;24016;52.102;11.584;2023-07-31T04:48:24;6.70;;;3.35;;
38208;SDS011;24016;52.102;11.584;2023-07-31T04:50:49;7.40;;;3.03;;
38208;SDS011;24016;52.102;11.584;2023-07-31T04:53:15;6.68;;;2.63;;
38208;SDS011;24016;52.102;11.584;2023-07-31T04:55:40;5.32;;;2.40;;
38208;SDS011;24016;52.102;11.584;2023-07-31T04:58:06;4.97;;;3.15;;
38208;SDS011;24016;52.102;11.584;2023-07-31T05:00:32;6.63;;;3.08;;
38208;SDS011;24016;52.102;11.584;2023-07-31T05:02:57;7.07;;;2.80;;
38208;SDS011;24016;52.102;11.584;2023-07-31T05:05:23;4.57;;;2.70;;
38208;SDS011;24016;52.102;11.584;2023-07-31T05:07:48;6.65;;;3.47;;
38208;SDS011;24016;52.102;11.584;2023-07-31T05:10:14;5.60;;;2.70;;
38208;SDS011;24016;52.102;11.584;2023-07-31T05:12:39;5.43;;;2.90;;
38208;SDS011;24016;52.102;11.584;2023-07-31T05:15:05;6.47;;;3.25;;
38208;SDS011;24016;52.102;11.584;2023-07-31T05:17:31;6.93;;;3.15;;
38208;SDS011;24016;52.102;11.584;2023-07-31T05:19:56;7.55;;;3.08;;
38208;SDS011;24016;52.102;11.584;2023-07-31T05:22:22;5.95;;;2.90;;
38208;SDS011;24016;52.102;11.584;2023-07-31T05:24:48;7.38;;;4.28;;
38208;SDS011;24016;52.102;11.584;2023-07-31T05:27:13;10.05;;;3.30;;
38208;SDS011;24016;52.102;11.584;2023-07-31T05:29:43;6.95;;;3.10;;
38208;SDS011;24016;52.102;11.584;2023-07-31T05:32:09;7.43;;;3.50;;
38208;SDS011;24016;52.102;11.584;2023-07-31T05:34:34;7.70;;;3.50;;
38208;SDS011;24016;52.102;11.584;2023-07-31T05:37:00;6.40;;;3.35;;
38208;SDS011;24016;52.102;11.584;2023-07-31T05:39:25;10.45;;;4.10;;
38208;SDS011;24016;52.102;11.584;2023-07-31T05:41:51;5.22;;;3.28;;
38208;SDS011;24016;52.102;11.584;2023-07-31T05:44:16;6.53;;;3.58;;
38208;SDS011;24016;52.102;11.584;2023-07-31T05:46:42;6.47;;;3.28;;
38208;SDS011;24016;52.102;11.584;2023-07-31T05:49:07;6.18;;;3.30;;
38208;SDS011;24016;52.102;11.584;2023-07-31T05:51:33;7.72;;;3.05;;
38208;SDS011;24016;52.102;11.584;2023-07-31T05:53:59;6.97;;;3.20;;
38208;SDS011;24016;52.102;11.584;2023-07-31T05:56:24;5.18;;;2.83;;
38208;SDS011;24016;52.102;11.584;2023-07-31T05:58:51;7.40;;;3.45;;
38208;SDS011;24016;52.102;11.584;2023-07-31T06:01:17;5.68;;;3.05;;
38208;SDS011;24016;52.102;11.584;2023-07-31T06:03:43;6.20;;;2.80;;
38208;SDS011;24016;52.102;11.584;2023-07-31T06:06:09;6.65;;;3.00;;
38208;SDS011;24016;52.102;11.584;2023-07-31T06:08:34;4.90;;;2.25;;
38208;SDS011;24016;52.102;11.584;2023-07-31T06:11:00;3.53;;;2.13;;
38208;SDS011;24016;52.102;11.584;2023-07-31T06:13:25;3.45;;;2.00;;
38208;SDS011;24016;52.102;11.584;2023-07-31T06:15:51;4.95;;;2.10;;
38208;SDS011;24016;52.102;11.584;2023-07-31T06:18:17;5.50;;;2.30;;
38208;SDS011;24016;52.102;11.584;2023-07-31T06:20:42;4.28;;;2.28;;
38208;SDS011;24016;52.102;11.584;2023-07-31T06:23:08;5.18;;;2.28;;
38208;SDS011;24016;52.102;11.584;2023-07-31T06:25:33;4.38;;;2.38;;
38208;SDS011;24016;52.102;11.584;2023-07-31T06:27:59;4.32;;;2.30;;
38208;SDS011;24016;52.102;11.584;2023-07-31T06:30:24;3.63;;;2.20;;
38208;SDS011;24016;52.102;11.584;2023-07-31T06:32:50;5.72;;;2.28;;
38208;SDS011;24016;52.102;11.584;2023-07-31T06:35:15;4.63;;;2.00;;
38208;SDS011;24016;52.102;11.584;2023-07-31T06:37:41;3.72;;;2.10;;
38208;SDS011;24016;52.102;11.584;2023-07-31T06:40:09;4.20;;;1.90;;
38208;SDS011;24016;52.102;11.584;2023-07-31T06:42:35;3.28;;;1.60;;
38208;SDS011;24016;52.102;11.584;2023-07-31T06:45:01;3.95;;;1.85;;
38208;SDS011;24016;52.102;11.584;2023-07-31T06:47:27;3.92;;;1.80;;
38208;SDS011;24016;52.102;11.584;2023-07-31T06:49:53;4.40;;;1.92;;
38208;SDS011;24016;52.102;11.584;2023-07-31T06:52:18;3.85;;;1.90;;
38208;SDS011;24016;52.102;11.584;2023-07-31T06:54:44;4.57;;;2.80;;
38208;SDS011;24016;52.102;11.584;2023-07-31T06:57:25;3.80;;;2.10;;
38208;SDS011;24016;52.102;11.584;2023-07-31T06:59:50;3.17;;;1.50;;
38208;SDS011;24016;52.102;11.584;2023-07-31T07:02:16;3.95;;;1.90;;
38208;SDS011;24016;52.102;11.584;2023-07-31T07:04:41;2.83;;;1.90;;
38208;SDS011;24016;52.102;11.584;2023-07-31T07:07:07;3.65;;;1.90;;
38208;SDS011;24016;52.102;11.584;2023-07-31T07:09:32;4.10;;;1.80;;
38208;SDS011;24016;52.102;11.584;2023-07-31T07:11:58;4.15;;;2.00;;
38208;SDS011;24016;52.102;11.584;2023-07-31T07:14:23;3.95;;;2.05;;
38208;SDS011;24016;52.102;11.584;2023-07-31T07:16:52;2.88;;;2.10;;
38208;SDS011;24016;52.102;11.584;2023-07-31T07:19:17;3.35;;;1.90;;
38208;SDS011;24016;52.102;11.584;2023-07-31T07:21:43;6.22;;;2.53;;
38208;SDS011;24016;52.102;11.584;2023-07-31T07:24:08;4.05;;;2.10;;
38208;SDS011;24016;52.102;11.584;2023-07-31T07:26:34;5.25;;;1.80;;
38208;SDS011;24016;52.102;11.584;2023-07-31T07:28:59;3.72;;;1.80;;
38208;SDS011;24016;52.102;11.584;2023-07-31T07:31:27;3.25;;;1.80;;
38208;SDS011;24016;52.102;11.584;2023-07-31T07:33:53;4.38;;;1.80;;
38208;SDS011;24016;52.102;11.584;2023-07-31T07:36:19;4.07;;;1.70;;
38208;SDS011;24016;52.102;11.584;2023-07-31T07:38:44;3.72;;;1.60;;
38208;SDS011;24016;52.102;11.584;2023-07-31T07:41:10;4.00;;;1.80;;
38208;SDS011;24016;52.102;11.584;2023-07-31T07:43:36;2.85;;;1.73;;
38208;SDS011;24016;52.102;11.584;2023-07-31T07:46:01;4.22;;;1.75;;
38208;SDS011;24016;52.102;11.584;2023-07-31T07:48:27;4.00;;;1.77;;
38208;SDS011;24016;52.102;11.584;2023-07-31T07:50:52;2.80;;;1.70;;
38208;SDS011;24016;52.102;11.584;2023-07-31T07:53:18;3.05;;;1.85;;
38208;SDS011;24016;52.102;11.584;2023-07-31T07:55:43;4.03;;;1.98;;
38208;SDS011;24016;52.102;11.584;2023-07-31T07:58:09;3.20;;;1.50;;
38208;SDS011;24016;52.102;11.584;2023-07-31T08:00:34;3.85;;;1.77;;
38208;SDS011;24016;52.102;11.584;2023-07-31T08:03:00;3.50;;;1.98;;
38208;SDS011;24016;52.102;11.584;2023-07-31T08:05:26;6.55;;;1.80;;
38208;SDS011;24016;52.102;11.584;2023-07-31T08:07:51;4.22;;;1.77;;
38208;SDS011;24016;52.102;11.584;2023-07-31T08:10:17;4.82;;;2.00;;
38208;SDS011;24016;52.102;11.584;2023-07-31T08:12:42;3.90;;;1.92;;
38208;SDS011;24016;52.102;11.584;2023-07-31T08:15:08;2.58;;;1.60;;
38208;SDS011;24016;52.102;11.584;2023-07-31T08:17:33;4.07;;;2.17;;
38208;SDS011;24016;52.102;11.584;2023-07-31T08:19:59;2.92;;;2.20;;
38208;SDS011;24016;52.102;11.584;2023-07-31T08:22:24;2.80;;;1.80;;
38208;SDS011;24016;52.102;11.584;2023-07-31T08:24:50;7.07;;;2.13;;
38208;SDS011;24016;52.102;11.584;2023-07-31T08:27:16;6.20;;;2.55;;
38208;SDS011;24016;52.102;11.584;2023-07-31T08:29:42;4.05;;;2.58;;
38208;SDS011;24016;52.102;11.584;2023-07-31T08:32:07;6.18;;;2.88;;
38208;SDS011;24016;52.102;11.584;2023-07-31T08:34:33;8.05;;;2.58;;
38208;SDS011;24016;52.102;11.584;2023-07-31T08:36:58;6.93;;;2.58;;
38208;SDS011;24016;52.102;11.584;2023-07-31T08:39:24;4.43;;;2.47;;
38208;SDS011;24016;52.102;11.584;2023-07-31T08:41:49;7.28;;;3.08;;
38208;SDS011;24016;52.102;11.584;2023-07-31T08:44:15;5.82;;;2.88;;
38208;SDS011;24016;52.102;11.584;2023-07-31T08:46:42;6.15;;;2.78;;
38208;SDS011;24016;52.102;11.584;2023-07-31T08:49:08;6.85;;;2.90;;
38208;SDS011;24016;52.102;11.584;2023-07-31T08:51:35;5.15;;;2.92;;
38208;SDS011;24016;52.102;11.584;2023-07-31T08:54:01;4.85;;;2.70;;
38208;SDS011;24016;52.102;11.584;2023-07-31T08:56:29;5.45;;;3.20;;
38208;SDS011;24016;52.102;11.584;2023-07-31T08:58:56;6.82;;;3.03;;
38208;SDS011;24016;52.102;11.584;2023-07-31T09:01:23;6.75;;;3.30;;
38208;SDS011;24016;52.102;11.584;2023-07-31T09:03:49;5.70;;;3.05;;
38208;SDS011;24016;52.102;11.584;2023-07-31T09:06:16;5.38;;;2.97;;
38208;SDS011;24016;52.102;11.584;2023-07-31T09:08:45;7.43;;;3.03;;
38208;SDS011;24016;52.102;11.584;2023-07-31T09:11:11;4.78;;;2.92;;
38208;SDS011;24016;52.102;11.584;2023-07-31T09:13:37;5.45;;;3.10;;
38208;SDS011;24016;52.102;11.584;2023-07-31T09:16:05;4.25;;;2.83;;
38208;SDS011;24016;52.102;11.584;2023-07-31T09:18:30;4.45;;;2.63;;
38208;SDS011;24016;52.102;11.584;2023-07-31T09:23:39;4.38;;;2.65;;
38208;SDS011;24016;52.102;11.584;2023-07-31T09:26:10;6.35;;;3.10;;
38208;SDS011;24016;52.102;11.584;2023-07-31T09:28:36;4.50;;;2.88;;
38208;SDS011;24016;52.102;11.584;2023-07-31T09:31:02;4.15;;;2.72;;
38208;SDS011;24016;52.102;11.584;2023-07-31T09:33:28;5.10;;;3.05;;
38208;SDS011;24016;52.102;11.584;2023-07-31T09:35:53;5.53;;;3.45;;
38208;SDS011;24016;52.102;11.584;2023-07-31T09:38:19;5.93;;;3.38;;
38208;SDS011;24016;52.102;11.584;2023-07-31T09:40:45;6.47;;;3.25;;
38208;SDS011;24016;52.102;11.584;2023-07-31T09:43:13;8.82;;;3.28;;
38208;SDS011;24016;52.102;11.584;2023-07-31T09:45:42;4.65;;;2.85;;
38208;SDS011;24016;52.102;11.584;2023-07-31T09:48:09;8.70;;;3.33;;
38208;SDS011;24016;52.102;11.584;2023-07-31T09:50:39;7.35;;;2.97;;
38208;SDS011;24016;52.102;11.584;2023-07-31T09:53:06;5.32;;;2.90;;
38208;SDS011;24016;52.102;11.584;2023-07-31T09:55:32;8.95;;;2.80;;
38208;SDS011;24016;52.102;11.584;2023-07-31T09:57:58;5.85;;;2.88;;
38208;SDS011;24016;52.102;11.584;2023-07-31T10:00:24;5.68;;;3.17;;
38208;SDS011;24016;52.102;11.584;2023-07-31T10:02:53;6.60;;;3.10;;
38208;SDS011;24016;52.102;11.584;2023-07-31T10:05:19;7.65;;;3.35;;
38208;SDS011;24016;52.102;11.584;2023-07-31T10:07:50;4.63;;;2.85;;
38208;SDS011;24016;52.102;11.584;2023-07-31T10:10:19;4.90;;;2.70;;
38208;SDS011;24016;52.102;11.584;2023-07-31T10:12:46;4.45;;;2.42;;
38208;SDS011;24016;52.102;11.584;2023-07-31T10:15:13;7.57;;;3.00;;
38208;SDS011;24016;52.102;11.584;2023-07-31T10:17:40;4.15;;;2.55;;
38208;SDS011;24016;52.102;11.584;2023-07-31T10:20:06;8.20;;;3.15;;
38208;SDS011;24016;52.102;11.584;2023-07-31T10:22:33;5.60;;;2.80;;
38208;SDS011;24016;52.102;11.584;2023-07-31T10:24:59;6.50;;;2.80;;
38208;SDS011;24016;52.102;11.584;2023-07-31T10:27:25;5.20;;;3.17;;
38208;SDS011;24016;52.102;11.584;2023-07-31T10:29:52;5.45;;;2.67;;
38208;SDS011;24016;52.102;11.584;2023-07-31T10:32:19;6.20;;;2.75;;
38208;SDS011;24016;52.102;11.584;2023-07-31T10:34:45;4.55;;;2.67;;
38208;SDS011;24016;52.102;11.584;2023-07-31T10:37:19;5.88;;;2.67;;
38208;SDS011;24016;52.102;11.584;2023-07-31T10:39:57;5.75;;;2.80;;
38208;SDS011;24016;52.102;11.584;2023-07-31T10:42:29;5.28;;;2.83;;
38208;SDS011;24016;52.102;11.584;2023-07-31T10:44:57;5.07;;;3.00;;
38208;SDS011;24016;52.102;11.584;2023-07-31T10:47:24;4.13;;;2.38;;
38208;SDS011;24016;52.102;11.584;2023-07-31T10:49:50;4.68;;;2.42;;
38208;SDS011;24016;52.102;11.584;2023-07-31T10:52:19;4.28;;;2.28;;
38208;SDS011;24016;52.102;11.584;2023-07-31T10:54:49;4.68;;;1.80;;
38208;SDS011;24016;52.102;11.584;2023-07-31T10:57:21;2.67;;;1.67;;
38208;SDS011;24016;52.102;11.584;2023-07-31T10:59:48;2.83;;;1.50;;
38208;SDS011;24016;52.102;11.584;2023-07-31T11:02:25;3.17;;;1.98;;
38208;SDS011;24016;52.102;11.584;2023-07-31T11:05:12;3.03;;;1.77;;
38208;SDS011;24016;52.102;11.584;2023-07-31T11:07:47;3.70;;;1.73;;
38208;SDS011;24016;52.102;11.584;2023-07-31T11:10:18;4.57;;;1.67;;
38208;SDS011;24016;52.102;11.584;2023-07-31T11:12:47;2.40;;;1.70;;
38208;SDS011;24016;52.102;11.584;2023-07-31T11:15:12;2.75;;;1.80;;
38208;SDS011;24016;52.102;11.584;2023-07-31T11:17:39;3.08;;;1.80;;
38208;SDS011;24016;52.102;11.584;2023-07-31T11:20:05;2.92;;;1.67;;
38208;SDS011;24016;52.102;11.584;2023-07-31T11:22:32;2.85;;;1.80;;
38208;SDS011;24016;52.102;11.584;2023-07-31T11:24:59;3.45;;;2.38;;
38208;SDS011;24016;52.102;11.584;2023-07-31T11:27:27;4.38;;;1.98;;
38208;SDS011;24016;52.102;11.584;2023-07-31T11:29:59;3.60;;;2.17;;
38208;SDS011;24016;52.102;11.584;2023-07-31T11:32:26;4.93;;;2.17;;
38208;SDS011;24016;52.102;11.584;2023-07-31T11:34:55;3.47;;;2.00;;
38208;SDS011;24016;52.102;11.584;2023-07-31T11:37:20;3.63;;;2.13;;
38208;SDS011;24016;52.102;11.584;2023-07-31T11:39:58;5.18;;;2.10;;
38208;SDS011;24016;52.102;11.584;2023-07-31T11:42:27;3.40;;;1.95;;
38208;SDS011;24016;52.102;11.584;2023-07-31T11:44:52;3.28;;;2.00;;
38208;SDS011;24016;52.102;11.584;2023-07-31T11:47:18;4.28;;;2.55;;
38208;SDS011;24016;52.102;11.584;2023-07-31T11:49:44;3.25;;;1.98;;
38208;SDS011;24016;52.102;11.584;2023-07-31T11:52:10;4.57;;;2.20;;
38208;SDS011;24016;52.102;11.584;2023-07-31T11:54:37;4.50;;;2.10;;
38208;SDS011;24016;52.102;11.584;2023-07-31T11:57:03;2.50;;;1.73;;
38208;SDS011;24016;52.102;11.584;2023-07-31T11:59:29;4.47;;;2.17;;
38208;SDS011;24016;52.102;11.584;2023-07-31T12:01:55;3.30;;;2.00;;
38208;SDS011;24016;52.102;11.584;2023-07-31T12:04:21;4.07;;;2.30;;
38208;SDS011;24016;52.102;11.584;2023-07-31T12:06:48;3.25;;;1.90;;
38208;SDS011;24016;52.102;11.584;2023-07-31T12:09:15;3.20;;;2.00;;
38208;SDS011;24016;52.102;11.584;2023-07-31T12:11:47;3.15;;;2.13;;
38208;SDS011;24016;52.102;11.584;2023-07-31T12:14:34;4.47;;;2.15;;
38208;SDS011;24016;52.102;11.584;2023-07-31T12:17:01;3.92;;;2.10;;
38208;SDS011;24016;52.102;11.584;2023-07-31T12:19:29;3.20;;;1.92;;
38208;SDS011;24016;52.102;11.584;2023-07-31T12:21:56;2.65;;;2.00;;
38208;SDS011;24016;52.102;11.584;2023-07-31T12:24:22;3.55;;;2.28;;
38208;SDS011;24016;52.102;11.584;2023-07-31T12:26:48;3.35;;;2.22;;
38208;SDS011;24016;52.102;11.584;2023-07-31T12:29:14;3.30;;;1.90;;
38208;SDS011;24016;52.102;11.584;2023-07-31T12:31:43;3.78;;;1.80;;
38208;SDS011;24016;52.102;11.584;2023-07-31T12:34:15;3.15;;;1.70;;
38208;SDS011;24016;52.102;11.584;2023-07-31T12:36:46;2.70;;;1.60;;
38208;SDS011;24016;52.102;11.584;2023-07-31T12:39:13;2.72;;;1.70;;
38208;SDS011;24016;52.102;11.584;2023-07-31T12:41:39;4.97;;;1.90;;
38208;SDS011;24016;52.102;11.584;2023-07-31T12:44:05;2.78;;;1.75;;
38208;SDS011;24016;52.102;11.584;2023-07-31T12:46:30;2.70;;;1.70;;
38208;SDS011;24016;52.102;11.584;2023-07-31T12:48:56;4.78;;;2.20;;
38208;SDS011;24016;52.102;11.584;2023-07-31T12:51:22;3.15;;;1.90;;
38208;SDS011;24016;52.102;11.584;2023-07-31T12:53:47;4.25;;;1.70;;
38208;SDS011;24016;52.102;11.584;2023-07-31T12:56:13;3.53;;;1.83;;
38208;SDS011;24016;52.102;11.584;2023-07-31T12:58:38;2.90;;;1.85;;
38208;SDS011;24016;52.102;11.584;2023-07-31T13:01:04;4.93;;;1.90;;
38208;SDS011;24016;52.102;11.584;2023-07-31T13:03:31;3.58;;;2.17;;
38208;SDS011;24016;52.102;11.584;2023-07-31T13:05:57;3.10;;;2.10;;
38208;SDS011;24016;52.102;11.584;2023-07-31T13:08:22;5.47;;;2.38;;
38208;SDS011;24016;52.102;11.584;2023-07-31T13:10:48;2.97;;;1.98;;
38208;SDS011;24016;52.102;11.584;2023-07-31T13:13:13;4.20;;;2.05;;
38208;SDS011;24016;52.102;11.584;2023-07-31T13:15:39;3.35;;;2.08;;
38208;SDS011;24016;52.102;11.584;2023-07-31T13:18:05;3.35;;;2.30;;
38208;SDS011;24016;52.102;11.584;2023-07-31T13:20:30;3.28;;;2.03;;
38208;SDS011;24016;52.102;11.584;2023-07-31T13:22:56;2.97;;;2.08;;
38208;SDS011;24016;52.102;11.584;2023-07-31T13:25:21;3.53;;;2.20;;
38208;SDS011;24016;52.102;11.584;2023-07-31T13:27:47;4.35;;;2.42;;
38208;SDS011;24016;52.102;11.584;2023-07-31T13:30:13;4.05;;;2.17;;
38208;SDS011;24016;52.102;11.584;2023-07-31T13:32:38;3.97;;;2.75;;
38208;SDS011;24016;52.102;11.584;2023-07-31T13:35:07;3.97;;;2.10;;
38208;SDS011;24016;52.102;11.584;2023-07-31T13:37:34;3.90;;;2.22;;
38208;SDS011;24016;52.102;11.584;2023-07-31T13:40:00;3.53;;;2.20;;
38208;SDS011;24016;52.102;11.584;2023-07-31T13:42:26;5.78;;;2.33;;
38208;SDS011;24016;52.102;11.584;2023-07-31T13:44:53;3.10;;;1.90;;
38208;SDS011;24016;52.102;11.584;2023-07-31T13:47:19;3.55;;;1.95;;
38208;SDS011;24016;52.102;11.584;2023-07-31T13:49:44;7.93;;;2.03;;
38208;SDS011;24016;52.102;11.584;2023-07-31T13:52:10;4.30;;;2.00;;
38208;SDS011;24016;52.102;11.584;2023-07-31T13:54:36;8.18;;;2.03;;
38208;SDS011;24016;52.102;11.584;2023-07-31T13:57:02;3.35;;;1.77;;
38208;SDS011;24016;52.102;11.584;2023-07-31T13:59:27;3.58;;;2.00;;
38208;SDS011;24016;52.102;11.584;2023-07-31T14:01:53;3.45;;;1.90;;
38208;SDS011;24016;52.102;11.584;2023-07-31T14:04:18;3.72;;;1.70;;
38208;SDS011;24016;52.102;11.584;2023-07-31T14:06:44;3.40;;;1.73;;
38208;SDS011;24016;52.102;11.584;2023-07-31T14:09:10;5.25;;;1.85;;
38208;SDS011;24016;52.102;11.584;2023-07-31T14:11:35;3.60;;;1.90;;
38208;SDS011;24016;52.102;11.584;2023-07-31T14:14:01;3.15;;;1.90;;
38208;SDS011;24016;52.102;11.584;2023-07-31T14:16:27;3.58;;;2.05;;
38208;SDS011;24016;52.102;11.584;2023-07-31T14:18:53;3.85;;;1.90;;
38208;SDS011;24016;52.102;11.584;2023-07-31T14:21:19;4.72;;;2.00;;
38208;SDS011;24016;52.102;11.584;2023-07-31T14:23:44;2.85;;;1.70;;
38208;SDS011;24016;52.102;11.584;2023-07-31T14:26:10;2.88;;;1.80;;
38208;SDS011;24016;52.102;11.584;2023-07-31T14:28:36;4.50;;;1.80;;
38208;SDS011;24016;52.102;11.584;2023-07-31T14:31:01;3.40;;;1.95;;
38208;SDS011;24016;52.102;11.584;2023-07-31T14:33:27;3.47;;;1.70;;
38208;SDS011;24016;52.102;11.584;2023-07-31T14:35:53;2.83;;;1.50;;
38208;SDS011;24016;52.102;11.584;2023-07-31T14:38:19;3.15;;;1.58;;